sensor_id;sensor_type;location;lat;lon;timestamp;P1;durP1;ratioP1;P2;durP2;ratioP2
83398;SDS011;73326;43.228;0.106;2024-01-07T00:01:38;6.05;;;2.05;;
83398;SDS011;73326;43.228;0.106;2024-01-07T00:04:04;3.85;;;2.13;;
83398;SDS011;73326;43.228;0.106;2024-01-07T00:06:30;6.05;;;1.95;;
83398;SDS011;73326;43.228;0.106;2024-01-07T00:08:56;4.75;;;2.03;;
83398;SDS011;73326;43.228;0.106;2024-01-07T00:11:22;3.50;;;1.90;;
83398;SDS011;73326;43.228;0.106;2024-01-07T00:13:48;3.97;;;2.15;;
83398;SDS011;73326;43.228;0.106;2024-01-07T00:16:14;4.10;;;2.28;;
83398;SDS011;73326;43.228;0.106;2024-01-07T00:18:40;6.10;;;2.30;;
83398;SDS011;73326;43.228;0.106;2024-01-07T00:21:06;6.10;;;2.40;;
83398;SDS011;73326;43.228;0.106;2024-01-07T00:23:32;2.72;;;1.92;;
83398;SDS011;73326;43.228;0.106;2024-01-07T00:25:59;4.07;;;1.80;;
83398;SDS011;73326;43.228;0.106;2024-01-07T00:28:25;3.20;;;1.90;;
83398;SDS011;73326;43.228;0.106;2024-01-07T00:30:51;3.80;;;1.90;;
83398;SDS011;73326;43.228;0.106;2024-01-07T00:33:16;5.78;;;2.20;;
83398;SDS011;73326;43.228;0.106;2024-01-07T00:35:42;4.38;;;1.90;;
83398;SDS011;73326;43.228;0.106;2024-01-07T00:38:08;4.55;;;1.90;;
83398;SDS011;73326;43.228;0.106;2024-01-07T00:40:34;2.63;;;1.75;;
83398;SDS011;73326;43.228;0.106;2024-01-07T00:43:00;5.97;;;2.10;;
83398;SDS011;73326;43.228;0.106;2024-01-07T00:45:26;4.35;;;1.92;;
83398;SDS011;73326;43.228;0.106;2024-01-07T00:47:52;3.38;;;1.70;;
83398;SDS011;73326;43.228;0.106;2024-01-07T00:50:20;3.55;;;1.90;;
83398;SDS011;73326;43.228;0.106;2024-01-07T00:52:46;5.28;;;1.90;;
83398;SDS011;73326;43.228;0.106;2024-01-07T00:55:12;5.63;;;2.33;;
83398;SDS011;73326;43.228;0.106;2024-01-07T00:57:38;4.03;;;1.90;;
83398;SDS011;73326;43.228;0.106;2024-01-07T01:00:06;6.00;;;2.28;;
83398;SDS011;73326;43.228;0.106;2024-01-07T01:02:33;4.78;;;1.60;;
83398;SDS011;73326;43.228;0.106;2024-01-07T01:05:00;3.20;;;1.73;;
83398;SDS011;73326;43.228;0.106;2024-01-07T01:07:26;5.57;;;2.03;;
83398;SDS011;73326;43.228;0.106;2024-01-07T01:09:52;4.45;;;2.15;;
83398;SDS011;73326;43.228;0.106;2024-01-07T01:12:18;9.18;;;2.10;;
83398;SDS011;73326;43.228;0.106;2024-01-07T01:14:44;4.88;;;1.90;;
83398;SDS011;73326;43.228;0.106;2024-01-07T01:17:10;3.90;;;1.83;;
83398;SDS011;73326;43.228;0.106;2024-01-07T01:19:36;3.92;;;2.40;;
83398;SDS011;73326;43.228;0.106;2024-01-07T01:22:02;3.17;;;1.90;;
83398;SDS011;73326;43.228;0.106;2024-01-07T01:24:29;4.60;;;2.30;;
83398;SDS011;73326;43.228;0.106;2024-01-07T01:26:55;6.15;;;2.15;;
83398;SDS011;73326;43.228;0.106;2024-01-07T01:29:21;5.60;;;2.08;;
83398;SDS011;73326;43.228;0.106;2024-01-07T01:31:47;5.25;;;2.05;;
83398;SDS011;73326;43.228;0.106;2024-01-07T01:34:13;5.03;;;2.08;;
83398;SDS011;73326;43.228;0.106;2024-01-07T01:36:39;4.05;;;2.30;;
83398;SDS011;73326;43.228;0.106;2024-01-07T01:39:05;4.28;;;1.85;;
83398;SDS011;73326;43.228;0.106;2024-01-07T01:41:31;5.80;;;1.92;;
83398;SDS011;73326;43.228;0.106;2024-01-07T01:43:58;6.18;;;2.13;;
83398;SDS011;73326;43.228;0.106;2024-01-07T01:46:24;4.85;;;2.20;;
83398;SDS011;73326;43.228;0.106;2024-01-07T01:48:50;8.57;;;2.40;;
83398;SDS011;73326;43.228;0.106;2024-01-07T01:51:17;3.78;;;2.13;;
83398;SDS011;73326;43.228;0.106;2024-01-07T01:53:44;5.35;;;2.15;;
83398;SDS011;73326;43.228;0.106;2024-01-07T01:56:10;2.03;;;1.80;;
83398;SDS011;73326;43.228;0.106;2024-01-07T01:58:36;4.25;;;2.08;;
83398;SDS011;73326;43.228;0.106;2024-01-07T02:01:03;3.72;;;2.00;;
83398;SDS011;73326;43.228;0.106;2024-01-07T02:03:29;6.53;;;2.22;;
83398;SDS011;73326;43.228;0.106;2024-01-07T02:05:56;4.38;;;1.95;;
83398;SDS011;73326;43.228;0.106;2024-01-07T02:08:22;5.75;;;2.97;;
83398;SDS011;73326;43.228;0.106;2024-01-07T02:10:48;5.57;;;2.40;;
83398;SDS011;73326;43.228;0.106;2024-01-07T02:13:14;4.43;;;2.53;;
83398;SDS011;73326;43.228;0.106;2024-01-07T02:15:40;7.53;;;2.58;;
83398;SDS011;73326;43.228;0.106;2024-01-07T02:18:06;4.07;;;2.60;;
83398;SDS011;73326;43.228;0.106;2024-01-07T02:20:32;5.20;;;2.30;;
83398;SDS011;73326;43.228;0.106;2024-01-07T02:22:58;3.50;;;2.25;;
83398;SDS011;73326;43.228;0.106;2024-01-07T02:25:24;4.55;;;2.28;;
83398;SDS011;73326;43.228;0.106;2024-01-07T02:27:51;4.68;;;2.38;;
83398;SDS011;73326;43.228;0.106;2024-01-07T02:30:17;5.07;;;2.58;;
83398;SDS011;73326;43.228;0.106;2024-01-07T02:32:44;5.00;;;2.72;;
83398;SDS011;73326;43.228;0.106;2024-01-07T02:35:09;4.43;;;2.40;;
83398;SDS011;73326;43.228;0.106;2024-01-07T02:37:36;5.07;;;2.22;;
83398;SDS011;73326;43.228;0.106;2024-01-07T02:40:02;4.57;;;2.83;;
83398;SDS011;73326;43.228;0.106;2024-01-07T02:42:28;5.05;;;2.30;;
83398;SDS011;73326;43.228;0.106;2024-01-07T02:44:54;6.13;;;3.10;;
83398;SDS011;73326;43.228;0.106;2024-01-07T02:47:20;4.15;;;2.70;;
83398;SDS011;73326;43.228;0.106;2024-01-07T02:49:46;4.95;;;2.53;;
83398;SDS011;73326;43.228;0.106;2024-01-07T02:52:12;4.03;;;2.47;;
83398;SDS011;73326;43.228;0.106;2024-01-07T02:54:38;4.47;;;2.33;;
83398;SDS011;73326;43.228;0.106;2024-01-07T02:57:04;4.10;;;2.60;;
83398;SDS011;73326;43.228;0.106;2024-01-07T02:59:30;4.93;;;3.08;;
83398;SDS011;73326;43.228;0.106;2024-01-07T03:01:56;8.13;;;2.70;;
83398;SDS011;73326;43.228;0.106;2024-01-07T03:04:22;5.40;;;3.08;;
83398;SDS011;73326;43.228;0.106;2024-01-07T03:06:48;4.78;;;2.85;;
83398;SDS011;73326;43.228;0.106;2024-01-07T03:09:14;4.00;;;2.90;;
83398;SDS011;73326;43.228;0.106;2024-01-07T03:11:40;5.25;;;2.80;;
83398;SDS011;73326;43.228;0.106;2024-01-07T03:14:06;4.07;;;3.15;;
83398;SDS011;73326;43.228;0.106;2024-01-07T03:16:32;5.28;;;3.28;;
83398;SDS011;73326;43.228;0.106;2024-01-07T03:18:59;7.28;;;3.10;;
83398;SDS011;73326;43.228;0.106;2024-01-07T03:21:25;6.30;;;3.13;;
83398;SDS011;73326;43.228;0.106;2024-01-07T03:23:51;6.75;;;3.13;;
83398;SDS011;73326;43.228;0.106;2024-01-07T03:26:17;5.38;;;3.20;;
83398;SDS011;73326;43.228;0.106;2024-01-07T03:28:43;5.25;;;3.10;;
83398;SDS011;73326;43.228;0.106;2024-01-07T03:31:11;5.90;;;3.13;;
83398;SDS011;73326;43.228;0.106;2024-01-07T03:33:37;4.97;;;3.47;;
83398;SDS011;73326;43.228;0.106;2024-01-07T03:36:07;5.28;;;3.42;;
83398;SDS011;73326;43.228;0.106;2024-01-07T03:38:33;7.07;;;3.40;;
83398;SDS011;73326;43.228;0.106;2024-01-07T03:41:00;5.15;;;3.53;;
83398;SDS011;73326;43.228;0.106;2024-01-07T03:43:26;5.57;;;3.47;;
83398;SDS011;73326;43.228;0.106;2024-01-07T03:45:52;6.32;;;3.47;;
83398;SDS011;73326;43.228;0.106;2024-01-07T03:48:18;6.00;;;3.28;;
83398;SDS011;73326;43.228;0.106;2024-01-07T03:50:44;6.63;;;3.38;;
83398;SDS011;73326;43.228;0.106;2024-01-07T03:53:11;5.88;;;3.22;;
83398;SDS011;73326;43.228;0.106;2024-01-07T03:55:36;5.60;;;3.08;;
83398;SDS011;73326;43.228;0.106;2024-01-07T03:58:04;6.30;;;3.22;;
83398;SDS011;73326;43.228;0.106;2024-01-07T04:00:33;7.28;;;3.15;;
83398;SDS011;73326;43.228;0.106;2024-01-07T04:02:59;5.72;;;3.35;;
83398;SDS011;73326;43.228;0.106;2024-01-07T04:05:25;5.57;;;3.28;;
83398;SDS011;73326;43.228;0.106;2024-01-07T04:07:51;7.85;;;3.30;;
83398;SDS011;73326;43.228;0.106;2024-01-07T04:10:17;4.65;;;3.00;;
83398;SDS011;73326;43.228;0.106;2024-01-07T04:12:43;6.60;;;3.63;;
83398;SDS011;73326;43.228;0.106;2024-01-07T04:15:09;9.15;;;3.40;;
83398;SDS011;73326;43.228;0.106;2024-01-07T04:17:35;7.15;;;3.78;;
83398;SDS011;73326;43.228;0.106;2024-01-07T04:20:01;6.90;;;3.83;;
83398;SDS011;73326;43.228;0.106;2024-01-07T04:22:28;4.63;;;3.22;;
83398;SDS011;73326;43.228;0.106;2024-01-07T04:24:53;5.82;;;3.45;;
83398;SDS011;73326;43.228;0.106;2024-01-07T04:27:19;4.05;;;3.33;;
83398;SDS011;73326;43.228;0.106;2024-01-07T04:29:45;7.70;;;3.72;;
83398;SDS011;73326;43.228;0.106;2024-01-07T04:32:12;8.13;;;3.72;;
83398;SDS011;73326;43.228;0.106;2024-01-07T04:34:38;7.72;;;3.53;;
83398;SDS011;73326;43.228;0.106;2024-01-07T04:37:04;9.02;;;3.78;;
83398;SDS011;73326;43.228;0.106;2024-01-07T04:39:30;6.05;;;3.58;;
83398;SDS011;73326;43.228;0.106;2024-01-07T04:41:56;7.53;;;3.60;;
83398;SDS011;73326;43.228;0.106;2024-01-07T04:44:22;7.57;;;3.75;;
83398;SDS011;73326;43.228;0.106;2024-01-07T04:46:48;6.30;;;3.75;;
83398;SDS011;73326;43.228;0.106;2024-01-07T04:49:14;6.78;;;4.38;;
83398;SDS011;73326;43.228;0.106;2024-01-07T04:51:40;5.65;;;4.22;;
83398;SDS011;73326;43.228;0.106;2024-01-07T04:54:06;5.20;;;3.53;;
83398;SDS011;73326;43.228;0.106;2024-01-07T04:56:33;5.53;;;3.10;;
83398;SDS011;73326;43.228;0.106;2024-01-07T04:58:59;8.90;;;3.80;;
83398;SDS011;73326;43.228;0.106;2024-01-07T05:01:25;5.75;;;3.17;;
83398;SDS011;73326;43.228;0.106;2024-01-07T05:03:51;5.32;;;3.60;;
83398;SDS011;73326;43.228;0.106;2024-01-07T05:06:17;6.72;;;3.85;;
83398;SDS011;73326;43.228;0.106;2024-01-07T05:08:43;4.47;;;2.95;;
83398;SDS011;73326;43.228;0.106;2024-01-07T05:11:09;5.78;;;3.80;;
83398;SDS011;73326;43.228;0.106;2024-01-07T05:13:36;7.00;;;3.33;;
83398;SDS011;73326;43.228;0.106;2024-01-07T05:16:02;5.80;;;3.40;;
83398;SDS011;73326;43.228;0.106;2024-01-07T05:18:28;6.47;;;3.55;;
83398;SDS011;73326;43.228;0.106;2024-01-07T05:20:54;5.63;;;2.90;;
83398;SDS011;73326;43.228;0.106;2024-01-07T05:23:20;7.93;;;3.38;;
83398;SDS011;73326;43.228;0.106;2024-01-07T05:25:46;4.75;;;3.15;;
83398;SDS011;73326;43.228;0.106;2024-01-07T05:28:12;8.40;;;3.40;;
83398;SDS011;73326;43.228;0.106;2024-01-07T05:30:39;6.40;;;3.22;;
83398;SDS011;73326;43.228;0.106;2024-01-07T05:33:05;5.32;;;3.17;;
83398;SDS011;73326;43.228;0.106;2024-01-07T05:35:31;7.32;;;3.60;;
83398;SDS011;73326;43.228;0.106;2024-01-07T05:37:57;6.22;;;3.50;;
83398;SDS011;73326;43.228;0.106;2024-01-07T05:40:23;5.38;;;3.00;;
83398;SDS011;73326;43.228;0.106;2024-01-07T05:42:49;6.18;;;3.50;;
83398;SDS011;73326;43.228;0.106;2024-01-07T05:45:15;7.57;;;3.33;;
83398;SDS011;73326;43.228;0.106;2024-01-07T05:47:41;4.85;;;3.40;;
83398;SDS011;73326;43.228;0.106;2024-01-07T05:50:07;7.20;;;3.40;;
83398;SDS011;73326;43.228;0.106;2024-01-07T05:52:33;7.75;;;3.28;;
83398;SDS011;73326;43.228;0.106;2024-01-07T05:54:59;5.50;;;2.83;;
83398;SDS011;73326;43.228;0.106;2024-01-07T05:57:26;6.03;;;3.25;;
83398;SDS011;73326;43.228;0.106;2024-01-07T05:59:52;4.65;;;3.00;;
83398;SDS011;73326;43.228;0.106;2024-01-07T06:02:18;4.60;;;3.08;;
83398;SDS011;73326;43.228;0.106;2024-01-07T06:04:44;6.60;;;2.78;;
83398;SDS011;73326;43.228;0.106;2024-01-07T06:07:10;8.13;;;3.55;;
83398;SDS011;73326;43.228;0.106;2024-01-07T06:09:36;5.28;;;3.67;;
83398;SDS011;73326;43.228;0.106;2024-01-07T06:12:02;5.82;;;3.22;;
83398;SDS011;73326;43.228;0.106;2024-01-07T06:14:28;6.13;;;3.70;;
83398;SDS011;73326;43.228;0.106;2024-01-07T06:16:54;7.93;;;3.70;;
83398;SDS011;73326;43.228;0.106;2024-01-07T06:19:20;5.55;;;3.70;;
83398;SDS011;73326;43.228;0.106;2024-01-07T06:21:46;4.57;;;3.10;;
83398;SDS011;73326;43.228;0.106;2024-01-07T06:24:12;5.93;;;3.60;;
